Terminal Aerodrome Forecast
Issued by NWS Jackson, KY

Home | Current Version | Previous Version | Text Only | Print | Product List | Glossary On
Versions: 1 2 3 4 5 6 7 8 9 10 11 12 13 14 15 16 17 18 19 20
594
FTUS43 KJKL 180520
TAFJKL
TAF
KJKL 180520Z 1806/1906 VRB03KT 6SM BR SCT008 OVC015
     FM180900 VRB03KT 2SM -DZ BR SCT003 OVC008
     FM181000 VRB03KT 3/4SM -DZ BR SCT001 OVC003
     FM181500 VRB04KT 5SM -DZ BR OVC008
     FM182100 24007KT 6SM -DZ BR OVC010=

USA.gov is the U.S. government's official web portal to all federal, state and local government web resources and services.